sensor_id;sensor_type;location;lat;lon;timestamp;P1;durP1;ratioP1;P2;durP2;ratioP2
40355;SDS011;26061;50.044;19.930;2023-03-31T00:01:25;23.23;;;12.43;;
40355;SDS011;26061;50.044;19.930;2023-03-31T00:03:51;20.77;;;13.17;;
40355;SDS011;26061;50.044;19.930;2023-03-31T00:06:26;15.53;;;11.40;;
40355;SDS011;26061;50.044;19.930;2023-03-31T00:08:52;18.90;;;11.02;;
40355;SDS011;26061;50.044;19.930;2023-03-31T00:11:18;17.67;;;11.60;;
40355;SDS011;26061;50.044;19.930;2023-03-31T00:13:48;14.30;;;9.83;;
40355;SDS011;26061;50.044;19.930;2023-03-31T00:16:14;16.27;;;9.48;;
40355;SDS011;26061;50.044;19.930;2023-03-31T00:18:40;14.23;;;8.57;;
40355;SDS011;26061;50.044;19.930;2023-03-31T00:21:15;15.37;;;9.17;;
40355;SDS011;26061;50.044;19.930;2023-03-31T00:23:58;11.50;;;8.30;;
40355;SDS011;26061;50.044;19.930;2023-03-31T00:26:31;14.67;;;8.10;;
40355;SDS011;26061;50.044;19.930;2023-03-31T00:28:58;11.83;;;7.33;;
40355;SDS011;26061;50.044;19.930;2023-03-31T00:31:25;10.68;;;7.43;;
40355;SDS011;26061;50.044;19.930;2023-03-31T00:33:52;10.70;;;7.07;;
40355;SDS011;26061;50.044;19.930;2023-03-31T00:36:17;12.43;;;7.20;;
40355;SDS011;26061;50.044;19.930;2023-03-31T00:38:52;10.55;;;6.68;;
40355;SDS011;26061;50.044;19.930;2023-03-31T00:41:24;11.17;;;6.77;;
40355;SDS011;26061;50.044;19.930;2023-03-31T00:46:54;11.03;;;6.27;;
40355;SDS011;26061;50.044;19.930;2023-03-31T00:49:27;8.35;;;6.75;;
40355;SDS011;26061;50.044;19.930;2023-03-31T00:51:58;8.97;;;6.70;;
40355;SDS011;26061;50.044;19.930;2023-03-31T00:54:29;11.27;;;6.97;;
40355;SDS011;26061;50.044;19.930;2023-03-31T00:56:58;11.03;;;6.80;;
40355;SDS011;26061;50.044;19.930;2023-03-31T00:59:28;10.43;;;6.40;;
40355;SDS011;26061;50.044;19.930;2023-03-31T01:01:56;11.27;;;7.32;;
40355;SDS011;26061;50.044;19.930;2023-03-31T01:04:28;10.97;;;7.07;;
40355;SDS011;26061;50.044;19.930;2023-03-31T01:06:59;9.93;;;7.07;;
40355;SDS011;26061;50.044;19.930;2023-03-31T01:09:33;13.33;;;7.67;;
40355;SDS011;26061;50.044;19.930;2023-03-31T01:12:02;15.13;;;8.60;;
40355;SDS011;26061;50.044;19.930;2023-03-31T01:14:32;13.07;;;8.40;;
40355;SDS011;26061;50.044;19.930;2023-03-31T01:16:58;13.00;;;8.50;;
40355;SDS011;26061;50.044;19.930;2023-03-31T01:25:17;9.53;;;7.37;;
40355;SDS011;26061;50.044;19.930;2023-03-31T01:41:14;11.10;;;7.00;;
40355;SDS011;26061;50.044;19.930;2023-03-31T01:47:02;9.00;;;6.47;;
40355;SDS011;26061;50.044;19.930;2023-03-31T01:55:11;11.97;;;7.10;;
40355;SDS011;26061;50.044;19.930;2023-03-31T01:57:49;10.97;;;7.70;;
40355;SDS011;26061;50.044;19.930;2023-03-31T02:00:26;11.70;;;7.23;;
40355;SDS011;26061;50.044;19.930;2023-03-31T02:05:53;15.93;;;8.50;;
40355;SDS011;26061;50.044;19.930;2023-03-31T02:08:22;12.50;;;8.20;;
40355;SDS011;26061;50.044;19.930;2023-03-31T02:10:53;13.13;;;8.03;;
40355;SDS011;26061;50.044;19.930;2023-03-31T02:13:20;13.63;;;8.50;;
40355;SDS011;26061;50.044;19.930;2023-03-31T02:15:50;13.83;;;9.47;;
40355;SDS011;26061;50.044;19.930;2023-03-31T02:18:21;14.30;;;8.87;;
40355;SDS011;26061;50.044;19.930;2023-03-31T02:20:50;15.23;;;8.70;;
40355;SDS011;26061;50.044;19.930;2023-03-31T02:23:20;15.60;;;8.53;;
40355;SDS011;26061;50.044;19.930;2023-03-31T02:25:56;13.47;;;8.97;;
40355;SDS011;26061;50.044;19.930;2023-03-31T02:28:27;16.23;;;8.27;;
40355;SDS011;26061;50.044;19.930;2023-03-31T02:33:37;13.27;;;7.40;;
40355;SDS011;26061;50.044;19.930;2023-03-31T02:36:03;12.77;;;8.40;;
40355;SDS011;26061;50.044;19.930;2023-03-31T02:38:35;12.17;;;7.30;;
40355;SDS011;26061;50.044;19.930;2023-03-31T02:41:04;12.57;;;7.37;;
40355;SDS011;26061;50.044;19.930;2023-03-31T02:43:30;16.90;;;9.67;;
40355;SDS011;26061;50.044;19.930;2023-03-31T02:45:56;11.20;;;7.20;;
40355;SDS011;26061;50.044;19.930;2023-03-31T02:48:23;12.60;;;7.77;;
40355;SDS011;26061;50.044;19.930;2023-03-31T02:59:19;15.63;;;9.80;;
40355;SDS011;26061;50.044;19.930;2023-03-31T03:02:18;21.80;;;11.50;;
40355;SDS011;26061;50.044;19.930;2023-03-31T03:10:26;18.87;;;11.67;;
40355;SDS011;26061;50.044;19.930;2023-03-31T03:13:22;21.13;;;12.37;;
40355;SDS011;26061;50.044;19.930;2023-03-31T03:15:57;19.63;;;12.70;;
40355;SDS011;26061;50.044;19.930;2023-03-31T03:18:28;20.00;;;11.93;;
40355;SDS011;26061;50.044;19.930;2023-03-31T03:20:54;19.13;;;12.03;;
40355;SDS011;26061;50.044;19.930;2023-03-31T03:23:20;20.47;;;12.10;;
40355;SDS011;26061;50.044;19.930;2023-03-31T03:25:47;23.17;;;12.40;;
40355;SDS011;26061;50.044;19.930;2023-03-31T03:28:12;20.83;;;12.43;;
40355;SDS011;26061;50.044;19.930;2023-03-31T03:30:38;21.63;;;12.47;;
40355;SDS011;26061;50.044;19.930;2023-03-31T03:33:03;19.60;;;11.10;;
40355;SDS011;26061;50.044;19.930;2023-03-31T03:35:31;20.37;;;12.23;;
40355;SDS011;26061;50.044;19.930;2023-03-31T03:37:58;22.50;;;12.70;;
40355;SDS011;26061;50.044;19.930;2023-03-31T03:40:24;18.60;;;11.70;;
40355;SDS011;26061;50.044;19.930;2023-03-31T03:42:50;16.43;;;11.43;;
40355;SDS011;26061;50.044;19.930;2023-03-31T03:45:15;19.23;;;10.97;;
40355;SDS011;26061;50.044;19.930;2023-03-31T03:47:41;18.03;;;11.13;;
40355;SDS011;26061;50.044;19.930;2023-03-31T03:50:07;16.20;;;10.50;;
40355;SDS011;26061;50.044;19.930;2023-03-31T03:52:33;18.03;;;10.80;;
40355;SDS011;26061;50.044;19.930;2023-03-31T03:54:59;16.40;;;10.90;;
40355;SDS011;26061;50.044;19.930;2023-03-31T03:57:26;17.13;;;10.03;;
40355;SDS011;26061;50.044;19.930;2023-03-31T03:59:52;17.63;;;10.47;;
40355;SDS011;26061;50.044;19.930;2023-03-31T04:02:17;21.37;;;11.33;;
40355;SDS011;26061;50.044;19.930;2023-03-31T04:04:43;18.53;;;10.50;;
40355;SDS011;26061;50.044;19.930;2023-03-31T04:07:09;18.43;;;11.77;;
40355;SDS011;26061;50.044;19.930;2023-03-31T04:09:35;18.60;;;12.23;;
40355;SDS011;26061;50.044;19.930;2023-03-31T04:12:01;19.87;;;11.23;;
40355;SDS011;26061;50.044;19.930;2023-03-31T04:14:27;21.37;;;12.60;;
40355;SDS011;26061;50.044;19.930;2023-03-31T04:16:52;20.97;;;12.13;;
40355;SDS011;26061;50.044;19.930;2023-03-31T04:19:20;19.40;;;12.37;;
40355;SDS011;26061;50.044;19.930;2023-03-31T04:21:50;21.37;;;12.60;;
40355;SDS011;26061;50.044;19.930;2023-03-31T04:24:26;20.80;;;12.20;;
40355;SDS011;26061;50.044;19.930;2023-03-31T04:26:55;18.77;;;11.87;;
40355;SDS011;26061;50.044;19.930;2023-03-31T04:29:21;23.73;;;12.47;;
40355;SDS011;26061;50.044;19.930;2023-03-31T04:31:51;22.63;;;12.30;;
40355;SDS011;26061;50.044;19.930;2023-03-31T04:34:18;22.93;;;14.03;;
40355;SDS011;26061;50.044;19.930;2023-03-31T04:36:46;19.47;;;12.40;;
40355;SDS011;26061;50.044;19.930;2023-03-31T04:39:12;19.03;;;12.97;;
40355;SDS011;26061;50.044;19.930;2023-03-31T04:41:42;18.37;;;12.63;;
40355;SDS011;26061;50.044;19.930;2023-03-31T04:44:09;19.63;;;12.50;;
40355;SDS011;26061;50.044;19.930;2023-03-31T04:46:34;22.63;;;12.80;;
40355;SDS011;26061;50.044;19.930;2023-03-31T04:49:00;20.03;;;12.23;;
40355;SDS011;26061;50.044;19.930;2023-03-31T04:51:27;19.40;;;13.97;;
40355;SDS011;26061;50.044;19.930;2023-03-31T04:53:53;22.30;;;13.23;;
40355;SDS011;26061;50.044;19.930;2023-03-31T04:56:19;24.23;;;14.03;;
40355;SDS011;26061;50.044;19.930;2023-03-31T04:58:45;20.07;;;13.67;;
40355;SDS011;26061;50.044;19.930;2023-03-31T05:01:10;22.37;;;13.40;;
40355;SDS011;26061;50.044;19.930;2023-03-31T05:03:42;26.40;;;14.37;;
40355;SDS011;26061;50.044;19.930;2023-03-31T05:06:09;21.73;;;13.80;;
40355;SDS011;26061;50.044;19.930;2023-03-31T05:08:35;21.90;;;13.90;;
40355;SDS011;26061;50.044;19.930;2023-03-31T05:11:02;23.10;;;12.17;;
40355;SDS011;26061;50.044;19.930;2023-03-31T05:13:29;21.60;;;13.53;;
40355;SDS011;26061;50.044;19.930;2023-03-31T05:15:54;22.83;;;13.40;;
40355;SDS011;26061;50.044;19.930;2023-03-31T05:18:20;21.00;;;13.30;;
40355;SDS011;26061;50.044;19.930;2023-03-31T05:20:46;23.07;;;13.13;;
40355;SDS011;26061;50.044;19.930;2023-03-31T05:23:12;21.27;;;12.97;;
40355;SDS011;26061;50.044;19.930;2023-03-31T05:25:38;22.30;;;13.87;;
40355;SDS011;26061;50.044;19.930;2023-03-31T05:28:03;16.77;;;12.03;;
40355;SDS011;26061;50.044;19.930;2023-03-31T05:30:30;25.73;;;12.27;;
40355;SDS011;26061;50.044;19.930;2023-03-31T05:32:56;19.93;;;12.37;;
40355;SDS011;26061;50.044;19.930;2023-03-31T05:35:21;20.70;;;12.57;;
40355;SDS011;26061;50.044;19.930;2023-03-31T05:37:47;18.70;;;12.00;;
40355;SDS011;26061;50.044;19.930;2023-03-31T05:40:13;17.10;;;11.27;;
40355;SDS011;26061;50.044;19.930;2023-03-31T05:42:39;18.67;;;11.17;;
40355;SDS011;26061;50.044;19.930;2023-03-31T05:45:06;19.50;;;11.90;;
40355;SDS011;26061;50.044;19.930;2023-03-31T05:47:32;20.13;;;11.73;;
40355;SDS011;26061;50.044;19.930;2023-03-31T05:49:58;17.03;;;10.70;;
40355;SDS011;26061;50.044;19.930;2023-03-31T05:52:24;16.80;;;10.90;;
40355;SDS011;26061;50.044;19.930;2023-03-31T05:54:50;16.87;;;10.73;;
40355;SDS011;26061;50.044;19.930;2023-03-31T05:57:16;14.80;;;10.63;;
40355;SDS011;26061;50.044;19.930;2023-03-31T05:59:42;16.97;;;10.47;;
40355;SDS011;26061;50.044;19.930;2023-03-31T06:02:10;14.50;;;9.93;;
40355;SDS011;26061;50.044;19.930;2023-03-31T06:04:37;15.43;;;9.83;;
40355;SDS011;26061;50.044;19.930;2023-03-31T06:07:04;13.80;;;8.93;;
40355;SDS011;26061;50.044;19.930;2023-03-31T06:09:30;15.00;;;10.53;;
40355;SDS011;26061;50.044;19.930;2023-03-31T06:11:56;18.77;;;9.50;;
40355;SDS011;26061;50.044;19.930;2023-03-31T06:14:21;11.35;;;8.25;;
40355;SDS011;26061;50.044;19.930;2023-03-31T06:16:47;12.50;;;8.43;;
40355;SDS011;26061;50.044;19.930;2023-03-31T06:19:13;9.98;;;7.28;;
40355;SDS011;26061;50.044;19.930;2023-03-31T06:21:39;10.00;;;7.73;;
40355;SDS011;26061;50.044;19.930;2023-03-31T06:24:05;13.20;;;8.80;;
40355;SDS011;26061;50.044;19.930;2023-03-31T06:26:32;13.47;;;8.63;;
40355;SDS011;26061;50.044;19.930;2023-03-31T06:28:59;10.98;;;7.30;;
40355;SDS011;26061;50.044;19.930;2023-03-31T06:31:25;8.25;;;6.30;;
40355;SDS011;26061;50.044;19.930;2023-03-31T06:33:51;10.48;;;6.30;;
40355;SDS011;26061;50.044;19.930;2023-03-31T06:36:18;7.70;;;5.90;;
40355;SDS011;26061;50.044;19.930;2023-03-31T06:38:45;9.73;;;5.63;;
40355;SDS011;26061;50.044;19.930;2023-03-31T06:41:13;9.40;;;6.00;;
40355;SDS011;26061;50.044;19.930;2023-03-31T06:43:40;7.90;;;5.82;;
40355;SDS011;26061;50.044;19.930;2023-03-31T06:46:06;10.00;;;5.32;;
40355;SDS011;26061;50.044;19.930;2023-03-31T06:48:32;5.88;;;5.28;;
40355;SDS011;26061;50.044;19.930;2023-03-31T06:50:59;11.73;;;5.90;;
40355;SDS011;26061;50.044;19.930;2023-03-31T06:53:26;7.40;;;5.38;;
40355;SDS011;26061;50.044;19.930;2023-03-31T06:55:52;9.38;;;5.47;;
40355;SDS011;26061;50.044;19.930;2023-03-31T06:58:18;7.75;;;4.97;;
40355;SDS011;26061;50.044;19.930;2023-03-31T07:00:44;7.78;;;4.95;;
40355;SDS011;26061;50.044;19.930;2023-03-31T07:03:12;6.38;;;4.70;;
40355;SDS011;26061;50.044;19.930;2023-03-31T07:05:39;5.90;;;4.60;;
40355;SDS011;26061;50.044;19.930;2023-03-31T07:08:05;7.40;;;4.63;;
40355;SDS011;26061;50.044;19.930;2023-03-31T07:10:31;8.05;;;5.38;;
40355;SDS011;26061;50.044;19.930;2023-03-31T07:12:57;7.07;;;4.60;;
40355;SDS011;26061;50.044;19.930;2023-03-31T07:15:24;9.00;;;5.35;;
40355;SDS011;26061;50.044;19.930;2023-03-31T07:17:54;6.78;;;4.53;;
40355;SDS011;26061;50.044;19.930;2023-03-31T07:20:26;9.02;;;4.30;;
40355;SDS011;26061;50.044;19.930;2023-03-31T07:22:53;6.93;;;4.38;;
40355;SDS011;26061;50.044;19.930;2023-03-31T07:25:19;6.70;;;4.03;;
40355;SDS011;26061;50.044;19.930;2023-03-31T07:27:44;5.80;;;4.32;;
40355;SDS011;26061;50.044;19.930;2023-03-31T07:30:17;5.57;;;3.97;;
40355;SDS011;26061;50.044;19.930;2023-03-31T07:32:45;7.25;;;3.47;;
40355;SDS011;26061;50.044;19.930;2023-03-31T07:35:12;5.75;;;3.22;;
40355;SDS011;26061;50.044;19.930;2023-03-31T07:37:38;5.57;;;2.75;;
40355;SDS011;26061;50.044;19.930;2023-03-31T07:40:06;3.28;;;2.70;;
40355;SDS011;26061;50.044;19.930;2023-03-31T07:42:34;5.75;;;3.08;;
40355;SDS011;26061;50.044;19.930;2023-03-31T07:45:00;6.03;;;2.90;;
40355;SDS011;26061;50.044;19.930;2023-03-31T07:47:26;3.88;;;2.85;;
40355;SDS011;26061;50.044;19.930;2023-03-31T07:49:52;3.80;;;2.03;;
40355;SDS011;26061;50.044;19.930;2023-03-31T07:52:18;5.22;;;1.67;;
40355;SDS011;26061;50.044;19.930;2023-03-31T07:54:44;4.13;;;2.05;;
40355;SDS011;26061;50.044;19.930;2023-03-31T07:57:11;4.30;;;1.90;;
40355;SDS011;26061;50.044;19.930;2023-03-31T07:59:37;4.68;;;1.90;;
40355;SDS011;26061;50.044;19.930;2023-03-31T08:02:02;1.65;;;1.50;;
40355;SDS011;26061;50.044;19.930;2023-03-31T08:04:28;2.63;;;1.90;;
40355;SDS011;26061;50.044;19.930;2023-03-31T08:06:54;2.90;;;1.80;;
40355;SDS011;26061;50.044;19.930;2023-03-31T08:09:20;3.63;;;1.98;;
40355;SDS011;26061;50.044;19.930;2023-03-31T08:11:47;2.75;;;1.70;;
40355;SDS011;26061;50.044;19.930;2023-03-31T08:14:13;3.58;;;1.58;;
40355;SDS011;26061;50.044;19.930;2023-03-31T08:16:39;4.22;;;1.77;;
40355;SDS011;26061;50.044;19.930;2023-03-31T08:19:05;3.50;;;1.85;;
40355;SDS011;26061;50.044;19.930;2023-03-31T08:21:30;2.45;;;1.67;;
40355;SDS011;26061;50.044;19.930;2023-03-31T08:23:56;5.25;;;1.83;;
40355;SDS011;26061;50.044;19.930;2023-03-31T08:26:22;3.00;;;1.67;;
40355;SDS011;26061;50.044;19.930;2023-03-31T08:28:50;3.45;;;2.15;;
40355;SDS011;26061;50.044;19.930;2023-03-31T08:31:17;4.10;;;2.13;;
40355;SDS011;26061;50.044;19.930;2023-03-31T08:33:45;4.40;;;2.40;;
40355;SDS011;26061;50.044;19.930;2023-03-31T08:36:11;3.72;;;2.50;;
40355;SDS011;26061;50.044;19.930;2023-03-31T08:38:39;6.63;;;2.47;;
40355;SDS011;26061;50.044;19.930;2023-03-31T08:41:09;4.75;;;2.88;;
40355;SDS011;26061;50.044;19.930;2023-03-31T08:43:55;5.35;;;2.10;;
40355;SDS011;26061;50.044;19.930;2023-03-31T08:46:23;4.30;;;1.67;;
40355;SDS011;26061;50.044;19.930;2023-03-31T08:48:53;7.38;;;2.40;;
40355;SDS011;26061;50.044;19.930;2023-03-31T08:51:27;8.73;;;3.10;;
40355;SDS011;26061;50.044;19.930;2023-03-31T08:54:02;4.68;;;3.40;;
40355;SDS011;26061;50.044;19.930;2023-03-31T08:56:35;6.20;;;2.70;;
40355;SDS011;26061;50.044;19.930;2023-03-31T08:59:06;11.45;;;2.95;;
40355;SDS011;26061;50.044;19.930;2023-03-31T09:01:49;4.68;;;2.25;;
40355;SDS011;26061;50.044;19.930;2023-03-31T09:09:48;4.25;;;3.15;;
40355;SDS011;26061;50.044;19.930;2023-03-31T09:12:24;7.35;;;3.25;;
40355;SDS011;26061;50.044;19.930;2023-03-31T09:17:59;5.78;;;2.70;;
40355;SDS011;26061;50.044;19.930;2023-03-31T09:20:42;6.38;;;2.50;;
40355;SDS011;26061;50.044;19.930;2023-03-31T09:25:52;2.95;;;2.33;;
40355;SDS011;26061;50.044;19.930;2023-03-31T09:28:21;3.85;;;2.33;;
40355;SDS011;26061;50.044;19.930;2023-03-31T09:30:50;2.95;;;1.98;;
40355;SDS011;26061;50.044;19.930;2023-03-31T09:33:26;5.43;;;2.30;;
40355;SDS011;26061;50.044;19.930;2023-03-31T09:36:04;4.97;;;2.28;;
40355;SDS011;26061;50.044;19.930;2023-03-31T09:38:37;5.10;;;2.35;;
40355;SDS011;26061;50.044;19.930;2023-03-31T09:41:04;3.10;;;1.70;;
40355;SDS011;26061;50.044;19.930;2023-03-31T09:43:30;6.22;;;2.42;;
40355;SDS011;26061;50.044;19.930;2023-03-31T09:46:00;3.10;;;1.55;;
40355;SDS011;26061;50.044;19.930;2023-03-31T09:48:27;4.28;;;1.85;;
40355;SDS011;26061;50.044;19.930;2023-03-31T09:50:59;3.92;;;1.85;;
40355;SDS011;26061;50.044;19.930;2023-03-31T09:53:39;7.97;;;2.13;;
40355;SDS011;26061;50.044;19.930;2023-03-31T09:56:33;3.70;;;1.90;;
40355;SDS011;26061;50.044;19.930;2023-03-31T09:59:17;2.75;;;1.77;;
40355;SDS011;26061;50.044;19.930;2023-03-31T10:01:50;5.03;;;1.55;;
40355;SDS011;26061;50.044;19.930;2023-03-31T10:04:43;2.95;;;1.95;;
40355;SDS011;26061;50.044;19.930;2023-03-31T10:07:10;3.85;;;1.77;;
40355;SDS011;26061;50.044;19.930;2023-03-31T10:09:37;6.60;;;2.03;;
40355;SDS011;26061;50.044;19.930;2023-03-31T10:12:23;2.47;;;1.83;;
40355;SDS011;26061;50.044;19.930;2023-03-31T10:14:53;3.95;;;1.70;;
40355;SDS011;26061;50.044;19.930;2023-03-31T10:17:26;4.30;;;1.75;;
40355;SDS011;26061;50.044;19.930;2023-03-31T10:19:53;3.70;;;1.80;;
40355;SDS011;26061;50.044;19.930;2023-03-31T10:24:48;1.92;;;0.98;;
40355;SDS011;26061;50.044;19.930;2023-03-31T10:27:18;4.78;;;1.65;;
40355;SDS011;26061;50.044;19.930;2023-03-31T10:29:45;4.97;;;1.60;;
40355;SDS011;26061;50.044;19.930;2023-03-31T10:32:21;2.97;;;1.38;;
40355;SDS011;26061;50.044;19.930;2023-03-31T10:34:50;3.33;;;1.48;;
40355;SDS011;26061;50.044;19.930;2023-03-31T10:37:17;4.55;;;1.55;;
40355;SDS011;26061;50.044;19.930;2023-03-31T10:39:46;3.13;;;1.38;;
40355;SDS011;26061;50.044;19.930;2023-03-31T10:42:21;3.13;;;1.42;;
40355;SDS011;26061;50.044;19.930;2023-03-31T10:44:48;3.38;;;1.85;;
40355;SDS011;26061;50.044;19.930;2023-03-31T10:49:40;2.65;;;1.50;;
40355;SDS011;26061;50.044;19.930;2023-03-31T10:52:22;1.90;;;1.42;;
40355;SDS011;26061;50.044;19.930;2023-03-31T10:55:10;4.40;;;1.25;;
40355;SDS011;26061;50.044;19.930;2023-03-31T10:57:48;3.33;;;1.35;;
40355;SDS011;26061;50.044;19.930;2023-03-31T11:00:28;3.80;;;1.98;;
40355;SDS011;26061;50.044;19.930;2023-03-31T11:03:15;3.22;;;1.52;;
40355;SDS011;26061;50.044;19.930;2023-03-31T11:08:21;3.50;;;1.48;;
40355;SDS011;26061;50.044;19.930;2023-03-31T11:16:17;3.38;;;2.00;;
40355;SDS011;26061;50.044;19.930;2023-03-31T11:19:15;3.30;;;1.83;;
40355;SDS011;26061;50.044;19.930;2023-03-31T11:22:04;2.50;;;1.50;;
40355;SDS011;26061;50.044;19.930;2023-03-31T11:30:26;7.72;;;2.20;;
40355;SDS011;26061;50.044;19.930;2023-03-31T11:44:08;5.35;;;2.97;;
40355;SDS011;26061;50.044;19.930;2023-03-31T11:49:28;6.68;;;3.22;;
40355;SDS011;26061;50.044;19.930;2023-03-31T11:52:05;7.15;;;3.47;;
40355;SDS011;26061;50.044;19.930;2023-03-31T11:54:43;7.97;;;3.22;;
40355;SDS011;26061;50.044;19.930;2023-03-31T11:57:19;3.20;;;2.90;;
40355;SDS011;26061;50.044;19.930;2023-03-31T11:59:56;4.82;;;2.58;;
40355;SDS011;26061;50.044;19.930;2023-03-31T12:05:04;4.25;;;2.42;;
40355;SDS011;26061;50.044;19.930;2023-03-31T12:07:44;5.13;;;2.85;;
40355;SDS011;26061;50.044;19.930;2023-03-31T12:10:20;5.15;;;3.80;;
40355;SDS011;26061;50.044;19.930;2023-03-31T12:12:51;4.70;;;2.63;;
40355;SDS011;26061;50.044;19.930;2023-03-31T12:17:58;6.10;;;3.67;;
40355;SDS011;26061;50.044;19.930;2023-03-31T12:20:29;9.75;;;3.20;;
40355;SDS011;26061;50.044;19.930;2023-03-31T12:22:58;9.68;;;2.95;;
40355;SDS011;26061;50.044;19.930;2023-03-31T12:25:37;5.32;;;2.35;;
40355;SDS011;26061;50.044;19.930;2023-03-31T12:28:09;9.77;;;3.65;;
40355;SDS011;26061;50.044;19.930;2023-03-31T12:30:36;3.03;;;1.98;;
40355;SDS011;26061;50.044;19.930;2023-03-31T12:33:24;9.27;;;4.25;;
40355;SDS011;26061;50.044;19.930;2023-03-31T12:36:02;8.80;;;3.00;;
40355;SDS011;26061;50.044;19.930;2023-03-31T12:46:55;3.28;;;1.75;;
40355;SDS011;26061;50.044;19.930;2023-03-31T12:49:39;3.78;;;1.80;;
40355;SDS011;26061;50.044;19.930;2023-03-31T13:01:01;1.73;;;0.88;;
40355;SDS011;26061;50.044;19.930;2023-03-31T13:06:00;7.20;;;1.58;;
40355;SDS011;26061;50.044;19.930;2023-03-31T13:11:14;5.00;;;1.20;;
40355;SDS011;26061;50.044;19.930;2023-03-31T13:13:57;6.68;;;1.85;;
40355;SDS011;26061;50.044;19.930;2023-03-31T13:16:30;5.85;;;2.10;;
40355;SDS011;26061;50.044;19.930;2023-03-31T13:18:57;5.30;;;1.70;;
40355;SDS011;26061;50.044;19.930;2023-03-31T13:21:24;5.20;;;2.03;;
40355;SDS011;26061;50.044;19.930;2023-03-31T13:23:50;4.70;;;1.90;;
40355;SDS011;26061;50.044;19.930;2023-03-31T13:34:44;3.45;;;1.95;;
40355;SDS011;26061;50.044;19.930;2023-03-31T13:42:52;8.70;;;2.78;;
40355;SDS011;26061;50.044;19.930;2023-03-31T13:51:17;6.25;;;2.10;;
40355;SDS011;26061;50.044;19.930;2023-03-31T14:02:13;5.30;;;1.70;;
40355;SDS011;26061;50.044;19.930;2023-03-31T14:05:28;4.60;;;1.50;;
40355;SDS011;26061;50.044;19.930;2023-03-31T14:07:58;3.63;;;1.35;;
40355;SDS011;26061;50.044;19.930;2023-03-31T14:10:29;6.00;;;2.00;;
40355;SDS011;26061;50.044;19.930;2023-03-31T14:13:09;7.30;;;2.80;;
40355;SDS011;26061;50.044;19.930;2023-03-31T14:15:49;4.88;;;2.90;;
40355;SDS011;26061;50.044;19.930;2023-03-31T14:18:37;7.07;;;2.90;;
40355;SDS011;26061;50.044;19.930;2023-03-31T14:21:15;5.68;;;2.38;;
40355;SDS011;26061;50.044;19.930;2023-03-31T14:26:48;9.00;;;2.33;;
40355;SDS011;26061;50.044;19.930;2023-03-31T14:34:51;11.75;;;3.55;;
40355;SDS011;26061;50.044;19.930;2023-03-31T14:37:18;7.72;;;3.03;;
40355;SDS011;26061;50.044;19.930;2023-03-31T14:39:51;7.55;;;3.00;;
40355;SDS011;26061;50.044;19.930;2023-03-31T14:42:22;3.08;;;2.40;;
40355;SDS011;26061;50.044;19.930;2023-03-31T14:45:15;3.05;;;1.80;;
40355;SDS011;26061;50.044;19.930;2023-03-31T14:50:40;2.95;;;1.65;;
40355;SDS011;26061;50.044;19.930;2023-03-31T14:53:15;4.25;;;1.50;;
40355;SDS011;26061;50.044;19.930;2023-03-31T14:55:42;7.47;;;2.47;;
40355;SDS011;26061;50.044;19.930;2023-03-31T14:58:12;5.13;;;1.77;;
40355;SDS011;26061;50.044;19.930;2023-03-31T15:00:42;4.15;;;1.67;;
40355;SDS011;26061;50.044;19.930;2023-03-31T15:03:11;3.28;;;1.55;;
40355;SDS011;26061;50.044;19.930;2023-03-31T15:05:39;5.20;;;3.25;;
40355;SDS011;26061;50.044;19.930;2023-03-31T15:08:10;5.70;;;1.70;;
40355;SDS011;26061;50.044;19.930;2023-03-31T15:10:41;4.25;;;1.70;;
40355;SDS011;26061;50.044;19.930;2023-03-31T15:13:11;8.57;;;2.03;;
40355;SDS011;26061;50.044;19.930;2023-03-31T15:15:43;4.07;;;2.17;;
40355;SDS011;26061;50.044;19.930;2023-03-31T15:18:11;3.83;;;2.30;;
40355;SDS011;26061;50.044;19.930;2023-03-31T15:20:39;5.90;;;2.75;;
40355;SDS011;26061;50.044;19.930;2023-03-31T15:23:20;6.07;;;2.10;;
40355;SDS011;26061;50.044;19.930;2023-03-31T15:25:57;4.95;;;1.83;;
40355;SDS011;26061;50.044;19.930;2023-03-31T15:28:30;6.53;;;2.00;;
40355;SDS011;26061;50.044;19.930;2023-03-31T15:31:03;6.82;;;2.28;;
40355;SDS011;26061;50.044;19.930;2023-03-31T15:33:33;8.30;;;2.20;;
40355;SDS011;26061;50.044;19.930;2023-03-31T15:36:05;6.53;;;2.17;;
40355;SDS011;26061;50.044;19.930;2023-03-31T15:38:40;8.95;;;2.78;;
40355;SDS011;26061;50.044;19.930;2023-03-31T15:41:10;9.93;;;3.03;;
40355;SDS011;26061;50.044;19.930;2023-03-31T15:43:44;6.20;;;2.50;;
40355;SDS011;26061;50.044;19.930;2023-03-31T15:49:02;9.43;;;3.33;;
40355;SDS011;26061;50.044;19.930;2023-03-31T15:51:31;7.20;;;2.60;;
40355;SDS011;26061;50.044;19.930;2023-03-31T15:54:00;9.15;;;2.85;;
40355;SDS011;26061;50.044;19.930;2023-03-31T15:56:30;8.30;;;3.35;;
40355;SDS011;26061;50.044;19.930;2023-03-31T15:58:57;6.72;;;2.58;;
40355;SDS011;26061;50.044;19.930;2023-03-31T16:01:29;6.32;;;3.00;;
40355;SDS011;26061;50.044;19.930;2023-03-31T16:03:57;6.18;;;2.95;;
40355;SDS011;26061;50.044;19.930;2023-03-31T16:06:36;7.38;;;3.08;;
40355;SDS011;26061;50.044;19.930;2023-03-31T16:09:06;8.60;;;3.90;;
40355;SDS011;26061;50.044;19.930;2023-03-31T16:11:35;9.50;;;3.42;;
40355;SDS011;26061;50.044;19.930;2023-03-31T16:14:11;5.75;;;3.33;;
40355;SDS011;26061;50.044;19.930;2023-03-31T16:17:05;9.50;;;3.13;;
40355;SDS011;26061;50.044;19.930;2023-03-31T16:19:40;9.85;;;3.95;;
40355;SDS011;26061;50.044;19.930;2023-03-31T16:22:15;11.20;;;4.13;;
40355;SDS011;26061;50.044;19.930;2023-03-31T16:24:45;10.38;;;3.83;;
40355;SDS011;26061;50.044;19.930;2023-03-31T16:27:11;8.40;;;3.83;;
40355;SDS011;26061;50.044;19.930;2023-03-31T16:29:37;12.07;;;4.50;;
40355;SDS011;26061;50.044;19.930;2023-03-31T16:32:06;7.07;;;3.55;;
40355;SDS011;26061;50.044;19.930;2023-03-31T16:35:00;10.77;;;4.88;;
40355;SDS011;26061;50.044;19.930;2023-03-31T16:37:28;8.23;;;4.18;;
40355;SDS011;26061;50.044;19.930;2023-03-31T16:39:53;10.05;;;4.78;;
40355;SDS011;26061;50.044;19.930;2023-03-31T16:42:21;12.68;;;5.15;;
40355;SDS011;26061;50.044;19.930;2023-03-31T16:44:47;12.00;;;4.93;;
40355;SDS011;26061;50.044;19.930;2023-03-31T16:47:13;12.05;;;4.53;;
40355;SDS011;26061;50.044;19.930;2023-03-31T16:49:39;9.27;;;4.40;;
40355;SDS011;26061;50.044;19.930;2023-03-31T16:52:05;8.90;;;4.53;;
40355;SDS011;26061;50.044;19.930;2023-03-31T16:54:33;12.70;;;5.85;;
40355;SDS011;26061;50.044;19.930;2023-03-31T16:56:59;9.13;;;5.22;;
40355;SDS011;26061;50.044;19.930;2023-03-31T16:59:25;12.27;;;5.90;;
40355;SDS011;26061;50.044;19.930;2023-03-31T17:01:52;14.27;;;6.45;;
40355;SDS011;26061;50.044;19.930;2023-03-31T17:04:18;18.65;;;5.97;;
40355;SDS011;26061;50.044;19.930;2023-03-31T17:06:44;13.40;;;5.95;;
40355;SDS011;26061;50.044;19.930;2023-03-31T17:09:10;15.20;;;5.35;;
40355;SDS011;26061;50.044;19.930;2023-03-31T17:11:36;16.67;;;6.20;;
40355;SDS011;26061;50.044;19.930;2023-03-31T17:14:02;14.35;;;6.28;;
40355;SDS011;26061;50.044;19.930;2023-03-31T17:16:29;15.05;;;6.63;;
40355;SDS011;26061;50.044;19.930;2023-03-31T17:18:58;19.45;;;8.07;;
40355;SDS011;26061;50.044;19.930;2023-03-31T17:21:24;18.73;;;7.25;;
40355;SDS011;26061;50.044;19.930;2023-03-31T17:23:50;19.30;;;7.60;;
40355;SDS011;26061;50.044;19.930;2023-03-31T17:26:16;17.08;;;6.90;;
40355;SDS011;26061;50.044;19.930;2023-03-31T17:28:42;12.82;;;7.20;;